Time;durP1;ratioP1;P1;durP2;ratioP2;P2;SDS_P1;SDS_P2;PMS_P1;PMS_P2;Temp;Humidity;BMP_temperature;BMP_pressure;BME280_temperature;BME280_humidity;BME280_pressure;Samples;Min_cycle;Max_cycle;Signal;HPM_P1;HPM_P2
2022/05/10 00:00:16;;;;;;;18.20;9.80;;;13.30;99.90;;;;;;5066064;28;20049;-76
2022/05/10 00:02:43;;;;;;;11.70;9.77;;;13.20;99.90;;;;;;5067152;28;20059;-77
2022/05/10 00:05:09;;;;;;;15.43;10.15;;;13.20;99.90;;;;;;5065391;28;20048;-77
2022/05/10 00:07:36;;;;;;;25.58;10.88;;;13.20;99.90;;;;;;5099497;28;20126;-77
2022/05/10 00:10:02;;;;;;;13.63;9.02;;;13.20;99.90;;;;;;5060552;28;20040;-76
2022/05/10 00:12:29;;;;;;;20.98;11.48;;;13.20;99.90;;;;;;5068953;28;20056;-75
2022/05/10 00:14:55;;;;;;;15.35;10.02;;;13.20;99.90;;;;;;5069831;28;20063;-77
2022/05/10 00:17:22;;;;;;;13.00;8.68;;;13.10;99.90;;;;;;5065396;28;20045;-77
2022/05/10 00:24:59;;;;;;;23.95;9.57;;;13.10;99.90;;;;;;5131444;22;21214;-77
2022/05/10 00:27:26;;;;;;;14.57;9.00;;;13.10;99.90;;;;;;5029481;28;20144;-76
2022/05/10 00:29:52;;;;;;;14.30;9.30;;;13.10;99.90;;;;;;5027678;28;20407;-77
2022/05/10 00:32:19;;;;;;;15.18;8.70;;;13.10;99.90;;;;;;5029642;28;20065;-76
2022/05/10 00:34:47;;;;;;;16.10;7.53;;;13.10;99.90;;;;;;5022768;28;20053;-75
2022/05/10 00:37:13;;;;;;;16.35;9.93;;;13.10;99.90;;;;;;5030051;28;20049;-76
2022/05/10 00:39:40;;;;;;;13.80;8.55;;;13.10;99.90;;;;;;5026033;28;20048;-77
2022/05/10 00:42:06;;;;;;;15.65;9.93;;;13.10;99.90;;;;;;5031459;28;20061;-77
2022/05/10 00:44:34;;;;;;;15.00;10.80;;;13.20;99.90;;;;;;5029835;28;20052;-76
2022/05/10 00:47:00;;;;;;;16.00;8.57;;;13.20;99.90;;;;;;5022549;28;20061;-77
2022/05/10 00:49:27;;;;;;;13.15;7.47;;;13.20;99.90;;;;;;5029086;28;20171;-77
2022/05/10 00:51:53;;;;;;;15.32;9.52;;;13.20;99.90;;;;;;5017011;28;20141;-78
2022/05/10 00:54:20;;;;;;;13.43;8.88;;;13.30;99.90;;;;;;5012680;28;20064;-77
2022/05/10 00:56:46;;;;;;;17.15;9.95;;;13.20;99.90;;;;;;5018821;28;20401;-77
2022/05/10 00:59:13;;;;;;;12.88;9.40;;;13.20;99.90;;;;;;5023396;28;20087;-77
2022/05/10 01:01:39;;;;;;;15.18;9.27;;;13.20;99.90;;;;;;5021720;28;20104;-76
2022/05/10 01:04:06;;;;;;;17.70;8.85;;;13.20;99.90;;;;;;5024095;28;20045;-77
2022/05/10 01:06:33;;;;;;;14.32;8.63;;;13.20;99.90;;;;;;5022727;28;20053;-78
2022/05/10 01:09:01;;;;;;;14.80;9.60;;;13.20;99.90;;;;;;5029089;28;20054;-76
2022/05/10 01:11:27;;;;;;;14.50;7.30;;;13.20;99.90;;;;;;5022881;28;20053;-77
2022/05/10 01:13:54;;;;;;;16.50;9.40;;;13.20;99.90;;;;;;5028386;28;20498;-77
2022/05/10 01:16:20;;;;;;;12.88;7.57;;;13.20;99.90;;;;;;5021848;28;20476;-76
2022/05/10 01:18:47;;;;;;;13.95;8.35;;;13.20;99.90;;;;;;5024322;28;20053;-77
2022/05/10 01:21:14;;;;;;;12.30;8.82;;;13.20;99.90;;;;;;5020251;28;20054;-77
2022/05/10 01:23:40;;;;;;;13.15;9.15;;;13.20;99.90;;;;;;5027172;28;20049;-77
2022/05/10 01:26:07;;;;;;;20.15;8.70;;;13.20;99.90;;;;;;5019045;28;20050;-78
2022/05/10 01:28:33;;;;;;;13.52;8.52;;;13.20;99.90;;;;;;5027199;28;20476;-77
2022/05/10 01:31:00;;;;;;;11.70;6.88;;;13.20;99.90;;;;;;5027673;28;20053;-77
2022/05/10 01:33:31;;;;;;;10.02;6.45;;;13.20;99.90;;;;;;5032485;28;20053;-77
2022/05/10 01:35:58;;;;;;;13.85;8.55;;;13.20;99.90;;;;;;5032444;28;20143;-77
2022/05/10 01:38:24;;;;;;;14.27;8.38;;;13.20;99.90;;;;;;5030233;28;20048;-77
2022/05/10 01:40:51;;;;;;;12.57;7.75;;;13.30;99.90;;;;;;5020911;28;20084;-76
2022/05/10 01:43:17;;;;;;;10.32;6.22;;;13.30;99.90;;;;;;5025363;28;20052;-77
2022/05/10 01:45:44;;;;;;;17.42;7.90;;;13.30;99.90;;;;;;5028331;28;20053;-77
2022/05/10 01:48:10;;;;;;;13.85;7.93;;;13.20;99.90;;;;;;5026743;28;20049;-77
2022/05/10 01:50:37;;;;;;;16.00;8.60;;;13.30;99.90;;;;;;5028264;28;20061;-77
2022/05/10 01:53:04;;;;;;;15.18;7.95;;;13.30;99.90;;;;;;5020681;28;20056;-77
2022/05/10 01:55:30;;;;;;;8.60;7.72;;;13.30;99.90;;;;;;5020994;28;20061;-77
2022/05/10 01:57:57;;;;;;;12.63;8.25;;;13.30;99.90;;;;;;5021142;28;20053;-77
2022/05/10 02:00:23;;;;;;;13.18;8.02;;;13.30;99.90;;;;;;5032268;28;20053;-76
2022/05/10 02:02:50;;;;;;;13.20;8.85;;;13.30;99.90;;;;;;5032074;28;20064;-77
2022/05/10 02:05:16;;;;;;;19.92;10.07;;;13.30;99.90;;;;;;5020428;28;20138;-76
2022/05/10 02:07:43;;;;;;;10.95;8.98;;;13.30;99.90;;;;;;5033293;28;20049;-77
2022/05/10 02:10:09;;;;;;;15.13;9.15;;;13.30;99.90;;;;;;5021551;28;20056;-77
2022/05/10 02:12:36;;;;;;;13.00;8.48;;;13.30;99.90;;;;;;5029137;28;20053;-77
2022/05/10 02:15:02;;;;;;;11.63;9.38;;;13.30;99.90;;;;;;5015730;28;20108;-76
2022/05/10 02:17:29;;;;;;;12.73;9.32;;;13.30;99.90;;;;;;5019849;28;20046;-77
2022/05/10 02:19:55;;;;;;;19.67;10.65;;;13.30;99.90;;;;;;5027441;28;20077;-77
2022/05/10 02:22:23;;;;;;;21.33;11.05;;;13.40;99.90;;;;;;5022904;28;20050;-77
2022/05/10 02:24:50;;;;;;;14.45;9.82;;;13.40;99.90;;;;;;5032827;28;20057;-77
2022/05/10 02:27:16;;;;;;;18.55;10.98;;;13.40;99.90;;;;;;5025163;28;20053;-76
2022/05/10 02:29:43;;;;;;;14.35;9.63;;;13.40;99.90;;;;;;5021141;28;20061;-77
2022/05/10 02:34:54;;;;;;;21.27;10.77;;;13.50;99.90;;;;;;5032430;28;20058;-76
2022/05/10 02:37:20;;;;;;;16.50;10.00;;;13.50;99.90;;;;;;5025887;28;20049;-77
2022/05/10 02:39:47;;;;;;;21.42;11.18;;;13.50;99.90;;;;;;5030430;28;20056;-76
2022/05/10 02:42:13;;;;;;;15.93;11.75;;;13.50;99.90;;;;;;5023677;28;20057;-77
2022/05/10 02:44:40;;;;;;;18.08;12.05;;;13.60;99.90;;;;;;5028847;28;20064;-76
2022/05/10 02:47:06;;;;;;;20.27;12.82;;;13.60;99.90;;;;;;5021710;28;20076;-77
2022/05/10 02:49:33;;;;;;;19.33;11.57;;;13.60;99.90;;;;;;5024290;28;20057;-77
2022/05/10 02:51:59;;;;;;;17.88;12.32;;;13.60;99.90;;;;;;5028036;28;20419;-77
2022/05/10 02:54:26;;;;;;;14.32;10.25;;;13.60;99.90;;;;;;5017622;28;20050;-76
2022/05/10 02:56:52;;;;;;;16.48;11.20;;;13.60;99.90;;;;;;5026399;28;20053;-80
2022/05/10 02:59:19;;;;;;;16.40;12.07;;;13.60;99.90;;;;;;5019927;28;20389;-78
2022/05/10 03:01:45;;;;;;;15.60;12.60;;;13.60;99.90;;;;;;5028187;28;20049;-77
2022/05/10 03:04:12;;;;;;;18.63;12.77;;;13.70;99.90;;;;;;5013893;28;20165;-77
2022/05/10 03:06:39;;;;;;;18.58;12.52;;;13.60;99.90;;;;;;5022763;28;20089;-77
2022/05/10 03:09:05;;;;;;;16.00;10.60;;;13.70;99.90;;;;;;5027322;28;20049;-77
2022/05/10 03:11:32;;;;;;;17.00;12.98;;;13.70;99.90;;;;;;5022131;28;20057;-76
2022/05/10 03:13:58;;;;;;;18.33;14.95;;;13.70;99.90;;;;;;5021019;28;20133;-77
2022/05/10 03:16:25;;;;;;;20.33;14.02;;;13.70;99.90;;;;;;5016865;28;20105;-76
2022/05/10 03:18:52;;;;;;;22.00;13.48;;;13.70;99.90;;;;;;5028781;28;20045;-77
2022/05/10 03:21:18;;;;;;;18.25;14.18;;;13.70;99.90;;;;;;5020584;28;20057;-77
2022/05/10 03:23:45;;;;;;;16.25;12.32;;;13.70;99.90;;;;;;5031705;28;20050;-78
2022/05/10 03:26:11;;;;;;;19.95;13.77;;;13.70;99.90;;;;;;5029137;28;20053;-78
2022/05/10 03:28:38;;;;;;;20.67;14.55;;;13.70;99.90;;;;;;5026279;28;20063;-77
2022/05/10 03:31:04;;;;;;;25.58;13.85;;;13.70;99.90;;;;;;5022438;28;20081;-80
2022/05/10 03:33:31;;;;;;;18.63;15.15;;;13.80;99.90;;;;;;5018666;28;20041;-77
2022/05/10 03:35:58;;;;;;;23.20;14.55;;;13.80;99.90;;;;;;5022001;28;20094;-78
2022/05/10 03:38:24;;;;;;;22.85;15.98;;;13.80;99.90;;;;;;5023779;28;20180;-78
2022/05/10 03:40:51;;;;;;;22.05;14.48;;;13.80;99.90;;;;;;5030806;28;20088;-81
2022/05/10 03:43:17;;;;;;;22.92;14.98;;;13.80;99.90;;;;;;5026497;28;20824;-76
2022/05/10 03:45:44;;;;;;;22.48;15.07;;;13.80;99.90;;;;;;5020481;28;20050;-78
2022/05/10 03:48:10;;;;;;;20.95;13.50;;;13.80;99.90;;;;;;5027210;28;20057;-78
2022/05/10 03:50:37;;;;;;;18.50;14.55;;;13.80;99.90;;;;;;5025794;28;20057;-77
2022/05/10 03:53:03;;;;;;;21.17;14.75;;;13.90;99.90;;;;;;5018759;28;20060;-78
2022/05/10 03:55:30;;;;;;;19.00;15.07;;;13.90;99.90;;;;;;5026969;28;20049;-78
2022/05/10 03:57:56;;;;;;;17.90;14.20;;;13.80;99.90;;;;;;5016829;28;20057;-78
2022/05/10 04:00:23;;;;;;;21.50;15.68;;;13.90;99.90;;;;;;5021184;28;20049;-78
2022/05/10 04:02:50;;;;;;;26.25;16.17;;;13.80;99.90;;;;;;5029514;28;20053;-78
2022/05/10 04:05:16;;;;;;;20.10;13.57;;;13.80;99.90;;;;;;5021792;28;20405;-77
2022/05/10 04:07:43;;;;;;;23.85;15.43;;;13.90;99.90;;;;;;5027038;28;20093;-77
2022/05/10 04:10:09;;;;;;;19.10;14.98;;;13.90;99.90;;;;;;5028522;28;20557;-80
2022/05/10 04:12:36;;;;;;;22.85;15.80;;;13.90;99.90;;;;;;5028671;28;20049;-77
2022/05/10 04:15:02;;;;;;;19.52;15.15;;;13.80;99.90;;;;;;5018206;28;20049;-78
2022/05/10 04:17:29;;;;;;;31.83;17.38;;;13.80;99.90;;;;;;5022598;28;20232;-78
2022/05/10 04:19:55;;;;;;;21.80;15.85;;;13.90;99.90;;;;;;5031573;28;20053;-77
2022/05/10 04:22:22;;;;;;;25.75;17.40;;;13.90;99.90;;;;;;5023851;28;20059;-80
2022/05/10 04:24:48;;;;;;;22.95;15.95;;;13.90;99.90;;;;;;5020597;28;20454;-78
2022/05/10 04:27:15;;;;;;;19.52;16.50;;;13.90;99.90;;;;;;5022161;28;20045;-79
2022/05/10 04:29:41;;;;;;;17.92;13.68;;;13.90;99.90;;;;;;5028450;28;20442;-74
2022/05/10 04:32:08;;;;;;;21.58;14.25;;;14.00;99.90;;;;;;5025714;28;21144;-78
2022/05/10 04:34:34;;;;;;;25.48;15.98;;;14.00;99.90;;;;;;5027733;28;20053;-78
2022/05/10 04:37:01;;;;;;;29.23;15.60;;;14.00;99.90;;;;;;5022413;28;20053;-78
2022/05/10 04:41:24;;;;;;;33.22;17.88;;;14.00;99.90;;;;;;5019099;28;20050;-78
2022/05/10 04:42:13;;;;;;;22.70;15.60;;;14.00;99.90;;;;;;5026089;28;20058;-78
2022/05/10 04:44:40;;;;;;;28.35;16.40;;;14.00;99.90;;;;;;5016325;28;20233;-78
2022/05/10 04:47:06;;;;;;;24.40;15.15;;;14.00;99.90;;;;;;5017287;28;20078;-78
2022/05/10 04:49:33;;;;;;;22.88;13.95;;;14.00;99.90;;;;;;5024678;28;20045;-78
2022/05/10 04:51:59;;;;;;;21.08;15.15;;;14.10;99.90;;;;;;5029017;28;20057;-78
2022/05/10 04:54:26;;;;;;;19.17;13.65;;;14.00;99.90;;;;;;5017389;28;20511;-79
2022/05/10 04:56:53;;;;;;;19.85;14.75;;;14.10;99.90;;;;;;5017384;28;20049;-78
2022/05/10 04:59:19;;;;;;;23.23;16.85;;;14.10;99.90;;;;;;5015429;28;20498;-79
2022/05/10 05:01:46;;;;;;;30.30;15.95;;;14.10;99.90;;;;;;5030013;28;20064;-79
2022/05/10 05:04:12;;;;;;;21.63;15.45;;;14.10;99.90;;;;;;5018606;28;20046;-80
2022/05/10 05:06:40;;;;;;;21.85;14.70;;;14.10;99.90;;;;;;5028484;28;20480;-77
2022/05/10 05:09:06;;;;;;;25.23;16.30;;;14.20;99.90;;;;;;5028944;28;20103;-79
2022/05/10 05:11:33;;;;;;;19.85;14.50;;;14.20;99.90;;;;;;5018837;28;20148;-78
2022/05/10 05:13:59;;;;;;;23.17;16.25;;;14.30;99.90;;;;;;5027677;28;20119;-79
2022/05/10 05:16:26;;;;;;;17.13;15.07;;;14.30;99.90;;;;;;5029704;28;20486;-78
2022/05/10 05:18:52;;;;;;;24.33;14.88;;;14.40;99.90;;;;;;5030739;28;20058;-78
2022/05/10 05:21:19;;;;;;;25.17;16.23;;;14.40;99.90;;;;;;5032161;28;20046;-78
2022/05/10 05:23:46;;;;;;;21.38;14.85;;;14.40;99.90;;;;;;5030862;28;20061;-79
2022/05/10 05:26:12;;;;;;;21.60;14.13;;;14.40;99.90;;;;;;5034172;28;20500;-77
2022/05/10 05:28:39;;;;;;;22.38;14.75;;;14.50;99.90;;;;;;5018379;28;20046;-78
2022/05/10 05:31:05;;;;;;;22.27;13.82;;;14.50;99.90;;;;;;5016918;28;20053;-76
2022/05/10 05:33:32;;;;;;;27.83;14.02;;;14.50;99.90;;;;;;5016526;28;20477;-78
2022/05/10 05:35:58;;;;;;;23.88;15.85;;;14.50;99.90;;;;;;5024436;28;20049;-78
2022/05/10 05:38:26;;;;;;;24.58;14.02;;;14.60;99.90;;;;;;5025910;28;20046;-79
2022/05/10 05:40:53;;;;;;;21.50;14.55;;;14.60;99.90;;;;;;5030556;28;20144;-76
2022/05/10 05:43:19;;;;;;;25.52;17.45;;;14.70;99.90;;;;;;5019924;28;20453;-78
2022/05/10 05:45:46;;;;;;;27.20;16.42;;;14.70;99.90;;;;;;5028857;28;20408;-79
2022/05/10 05:48:12;;;;;;;22.17;15.10;;;14.70;99.90;;;;;;5031411;28;20049;-79
2022/05/10 05:50:39;;;;;;;22.88;16.13;;;14.70;99.90;;;;;;5020707;28;20058;-77
2022/05/10 05:53:05;;;;;;;28.48;15.50;;;14.70;99.90;;;;;;5022279;28;20488;-78
2022/05/10 05:55:32;;;;;;;30.98;15.18;;;14.80;99.90;;;;;;5027819;28;20085;-78
2022/05/10 05:57:58;;;;;;;26.25;16.98;;;14.90;99.90;;;;;;5020099;28;20523;-78
2022/05/10 06:00:25;;;;;;;20.23;14.85;;;14.90;99.90;;;;;;5023750;28;20050;-79
2022/05/10 06:02:51;;;;;;;23.08;15.60;;;14.90;99.90;;;;;;5019846;28;20049;-78
2022/05/10 06:05:18;;;;;;;23.27;16.17;;;15.00;99.90;;;;;;5026734;28;20049;-80
2022/05/10 06:07:45;;;;;;;27.90;18.00;;;15.10;99.90;;;;;;5023479;28;20054;-77
2022/05/10 06:10:11;;;;;;;26.00;16.55;;;15.10;99.90;;;;;;5030714;28;20045;-77
2022/05/10 06:12:39;;;;;;;22.17;16.25;;;15.20;99.90;;;;;;5022557;28;20049;-75
2022/05/10 06:15:08;;;;;;;24.50;18.00;;;15.20;99.90;;;;;;5022686;28;20085;-77
2022/05/10 06:17:35;;;;;;;24.23;16.25;;;15.20;99.90;;;;;;5024032;28;20041;-77
2022/05/10 06:20:01;;;;;;;23.17;17.17;;;15.30;99.90;;;;;;5027165;28;20057;-77
2022/05/10 06:22:28;;;;;;;26.67;17.42;;;15.20;99.90;;;;;;5026943;28;20051;-77
2022/05/10 06:24:54;;;;;;;22.35;16.63;;;15.30;99.90;;;;;;5025909;28;20091;-77
2022/05/10 06:27:21;;;;;;;23.08;16.15;;;15.30;99.90;;;;;;5022481;28;20063;-80
2022/05/10 06:29:49;;;;;;;21.67;16.13;;;15.40;99.90;;;;;;5019143;28;20068;-77
2022/05/10 06:32:15;;;;;;;31.58;15.75;;;15.50;99.90;;;;;;5024392;28;20073;-76
2022/05/10 06:34:42;;;;;;;25.50;17.13;;;15.50;99.90;;;;;;5027383;28;20057;-77
2022/05/10 06:38:16;;;;;;;22.27;17.20;;;15.60;99.90;;;;;;5024661;28;20408;-77
2022/05/10 06:40:01;;;;;;;31.35;16.83;;;15.60;99.90;;;;;;5023224;28;20064;-78
2022/05/10 06:42:28;;;;;;;23.30;17.73;;;15.80;99.90;;;;;;5020828;28;20042;-77
2022/05/10 06:44:54;;;;;;;21.48;17.05;;;15.80;99.90;;;;;;5019393;28;20046;-77
2022/05/10 06:47:21;;;;;;;24.40;16.70;;;15.90;99.90;;;;;;5020575;28;20057;-77
2022/05/10 06:49:48;;;;;;;24.48;16.35;;;16.00;99.90;;;;;;5030027;28;20096;-77
2022/05/10 06:52:14;;;;;;;26.30;18.20;;;16.10;99.90;;;;;;5026510;28;20104;-76
2022/05/10 06:54:41;;;;;;;20.67;15.27;;;16.30;99.90;;;;;;5023299;28;20060;-77
2022/05/10 06:57:07;;;;;;;26.65;16.33;;;16.50;99.90;;;;;;5016746;28;20108;-76
2022/05/10 06:59:34;;;;;;;23.52;16.38;;;16.80;99.90;;;;;;5018938;28;20108;-77
2022/05/10 07:02:00;;;;;;;19.58;15.60;;;17.00;99.90;;;;;;5018137;28;20050;-77
2022/05/10 07:04:27;;;;;;;19.58;15.25;;;17.30;99.90;;;;;;5020400;28;20401;-77
2022/05/10 07:06:53;;;;;;;30.42;15.80;;;17.70;99.90;;;;;;5023352;28;20068;-77
2022/05/10 07:09:20;;;;;;;20.60;14.25;;;17.90;99.90;;;;;;5025111;28;20396;-77
2022/05/10 07:11:47;;;;;;;21.30;14.82;;;18.10;99.90;;;;;;5030790;28;20849;-77
2022/05/10 07:14:14;;;;;;;29.40;16.65;;;18.30;99.90;;;;;;5028901;28;20103;-77
2022/05/10 07:16:40;;;;;;;20.15;16.65;;;18.40;99.90;;;;;;5018052;28;20115;-77
2022/05/10 07:19:07;;;;;;;21.35;14.05;;;18.60;99.90;;;;;;5022988;28;20053;-77
2022/05/10 07:21:33;;;;;;;18.48;14.65;;;18.70;99.90;;;;;;5026854;28;20045;-76
2022/05/10 07:24:01;;;;;;;19.23;15.50;;;18.70;99.90;;;;;;5027408;28;20054;-78
2022/05/10 07:26:27;;;;;;;16.33;12.50;;;18.80;99.90;;;;;;5020160;28;20555;-80
2022/05/10 07:28:54;;;;;;;21.30;13.65;;;18.90;99.90;;;;;;5023136;28;20045;-77
2022/05/10 07:31:20;;;;;;;21.17;13.80;;;19.00;99.90;;;;;;5027869;28;20056;-77
2022/05/10 07:33:47;;;;;;;26.48;14.57;;;19.10;99.90;;;;;;5019431;28;20049;-78
2022/05/10 07:36:25;;;;;;;15.52;12.85;;;19.10;99.90;;;;;;5022624;28;20072;-77
2022/05/10 07:38:52;;;;;;;17.20;12.25;;;19.30;99.90;;;;;;5019720;28;20049;-78
2022/05/10 07:41:21;;;;;;;14.85;12.40;;;19.50;99.90;;;;;;5021567;28;20053;-77
2022/05/10 07:43:48;;;;;;;18.70;11.73;;;19.60;99.90;;;;;;5021012;28;20053;-77
2022/05/10 07:46:14;;;;;;;20.05;12.60;;;19.80;99.90;;;;;;5025414;28;20046;-78
2022/05/10 07:48:41;;;;;;;16.23;10.45;;;20.00;99.90;;;;;;5024811;28;20041;-77
2022/05/10 07:51:07;;;;;;;19.10;10.65;;;20.10;99.90;;;;;;5021824;28;20056;-78
2022/05/10 07:53:35;;;;;;;19.55;11.50;;;20.30;99.90;;;;;;5021373;28;20136;-79
2022/05/10 07:56:02;;;;;;;15.35;11.32;;;20.50;99.70;;;;;;5028030;28;20057;-80
2022/05/10 07:58:28;;;;;;;16.33;9.95;;;20.70;99.40;;;;;;5026112;28;20049;-83
2022/05/10 08:00:55;;;;;;;23.40;10.18;;;20.80;98.80;;;;;;5019803;28;20057;-80
2022/05/10 08:03:22;;;;;;;14.05;8.07;;;21.00;97.70;;;;;;5021753;28;20037;-80
2022/05/10 08:05:48;;;;;;;12.52;8.20;;;21.20;96.80;;;;;;5016534;28;20053;-80
2022/05/10 08:08:17;;;;;;;11.35;7.68;;;21.30;95.20;;;;;;5018265;28;20050;-80
2022/05/10 08:10:43;;;;;;;12.73;7.53;;;21.40;95.00;;;;;;5022287;28;20041;-80
2022/05/10 08:13:10;;;;;;;18.55;7.75;;;21.50;94.00;;;;;;5021937;28;20045;-79
2022/05/10 08:15:37;;;;;;;40.50;11.10;;;21.60;93.40;;;;;;5026133;28;20537;-80
2022/05/10 08:18:03;;;;;;;12.50;6.20;;;21.70;92.50;;;;;;5022247;28;20045;-81
2022/05/10 08:20:30;;;;;;;17.25;5.68;;;21.70;91.90;;;;;;5017954;28;20053;-81
2022/05/10 08:22:56;;;;;;;12.27;6.60;;;21.80;91.20;;;;;;5015270;28;20049;-81
2022/05/10 08:25:23;;;;;;;12.30;6.82;;;21.80;91.10;;;;;;5023119;28;20052;-80
2022/05/10 08:27:49;;;;;;;10.40;5.82;;;21.90;90.90;;;;;;5024740;28;20057;-81
2022/05/10 08:30:17;;;;;;;6.88;5.57;;;21.90;90.30;;;;;;5022311;28;20045;-80
2022/05/10 08:32:43;;;;;;;7.78;5.65;;;22.00;90.10;;;;;;5017745;28;20053;-78
2022/05/10 08:35:10;;;;;;;14.45;6.13;;;21.90;89.10;;;;;;5028316;28;20510;-80
2022/05/10 08:37:37;;;;;;;10.63;5.97;;;22.00;90.00;;;;;;5022277;28;20083;-79
2022/05/10 08:40:03;;;;;;;11.18;6.95;;;22.10;85.60;;;;;;5017761;28;20049;-80
2022/05/10 08:42:30;;;;;;;9.95;6.90;;;22.20;86.70;;;;;;5019893;28;20500;-78
2022/05/10 08:44:57;;;;;;;9.25;6.57;;;22.30;85.60;;;;;;5026849;28;20049;-79
2022/05/10 08:47:23;;;;;;;15.18;6.20;;;22.20;87.30;;;;;;5030807;28;20057;-81
2022/05/10 08:49:50;;;;;;;10.30;7.55;;;22.30;88.40;;;;;;5023700;28;20049;-79
2022/05/10 08:52:16;;;;;;;12.15;6.60;;;22.30;88.50;;;;;;5027811;28;20049;-78
2022/05/10 08:54:43;;;;;;;12.65;6.45;;;22.40;85.10;;;;;;5022104;28;20052;-79
2022/05/10 08:57:09;;;;;;;17.33;6.20;;;22.40;85.90;;;;;;5029122;28;20049;-76
2022/05/10 08:59:36;;;;;;;16.45;7.15;;;22.60;85.10;;;;;;5031307;28;20088;-83
2022/05/10 09:02:04;;;;;;;7.13;5.20;;;22.70;84.80;;;;;;5032176;28;20142;-79
2022/05/10 09:04:30;;;;;;;15.98;7.32;;;22.70;84.20;;;;;;5031765;28;20100;-79
2022/05/10 09:06:57;;;;;;;11.20;6.30;;;22.60;83.10;;;;;;5031523;28;20060;-79
2022/05/10 09:09:23;;;;;;;13.32;6.57;;;22.60;83.90;;;;;;5027057;28;20049;-78
2022/05/10 09:11:50;;;;;;;8.77;6.35;;;22.60;85.00;;;;;;5025127;28;20058;-81
2022/05/10 09:14:17;;;;;;;15.27;6.38;;;22.50;83.20;;;;;;5021606;28;20059;-78
2022/05/10 09:16:43;;;;;;;13.77;6.30;;;22.60;80.90;;;;;;5022607;28;20069;-79
2022/05/10 09:19:10;;;;;;;7.20;5.63;;;22.50;81.80;;;;;;5026737;28;20046;-78
2022/05/10 09:21:36;;;;;;;12.90;6.85;;;22.50;81.50;;;;;;5016880;28;20050;-82
2022/05/10 09:24:03;;;;;;;8.30;6.78;;;22.50;80.10;;;;;;5020777;28;20068;-80
2022/05/10 09:26:30;;;;;;;13.75;5.55;;;22.50;83.70;;;;;;5034223;28;20408;-79
2022/05/10 09:28:56;;;;;;;16.80;6.82;;;22.50;83.40;;;;;;5020651;28;20049;-78
2022/05/10 09:36:51;;;;;;;13.13;5.70;;;22.50;81.00;;;;;;5017328;28;20054;-79
2022/05/10 09:39:18;;;;;;;15.30;6.57;;;22.60;82.30;;;;;;5026570;28;20045;-79
2022/05/10 09:41:44;;;;;;;10.07;5.40;;;22.50;80.40;;;;;;5028091;28;20052;-80
2022/05/10 09:44:11;;;;;;;9.20;5.57;;;22.40;79.10;;;;;;5022573;28;20053;-78
2022/05/10 09:46:37;;;;;;;11.07;5.90;;;22.40;80.70;;;;;;5033032;28;20053;-80
2022/05/10 09:49:04;;;;;;;13.13;6.40;;;22.30;81.00;;;;;;5031417;28;20058;-80
2022/05/10 09:51:30;;;;;;;7.70;5.15;;;22.30;79.30;;;;;;5025741;28;20061;-79
2022/05/10 09:53:57;;;;;;;9.70;5.55;;;22.20;80.70;;;;;;5029780;28;20053;-79
2022/05/10 09:56:23;;;;;;;11.10;6.13;;;22.20;80.60;;;;;;5029464;28;20104;-79
2022/05/10 09:58:50;;;;;;;7.45;6.10;;;22.20;81.00;;;;;;5025147;28;20045;-79
2022/05/10 10:01:18;;;;;;;10.13;5.68;;;22.20;79.60;;;;;;5030287;28;20068;-79
2022/05/10 10:03:45;;;;;;;13.27;6.53;;;22.10;79.60;;;;;;5021297;28;20077;-78
2022/05/10 10:06:11;;;;;;;7.85;6.85;;;22.10;81.00;;;;;;5023828;28;20045;-79
2022/05/10 10:08:38;;;;;;;9.20;6.30;;;22.20;82.40;;;;;;5026201;28;20062;-79
2022/05/10 10:11:04;;;;;;;12.45;6.78;;;22.20;82.60;;;;;;5025574;28;20053;-79
2022/05/10 10:13:32;;;;;;;9.73;6.68;;;22.20;82.10;;;;;;5012864;28;20480;-78
2022/05/10 10:15:59;;;;;;;9.70;6.70;;;22.30;83.30;;;;;;5022047;28;20049;-79
2022/05/10 10:18:25;;;;;;;14.43;7.13;;;22.50;82.00;;;;;;5023223;28;20050;-79
2022/05/10 10:20:52;;;;;;;8.90;7.22;;;22.60;81.80;;;;;;5027369;28;20081;-79
2022/05/10 10:23:18;;;;;;;12.90;7.15;;;22.70;82.30;;;;;;5031910;28;20099;-79
2022/05/10 10:25:45;;;;;;;9.20;7.13;;;22.70;83.30;;;;;;5020380;28;20184;-79
2022/05/10 10:28:11;;;;;;;10.80;7.07;;;22.80;82.90;;;;;;5028515;28;20042;-79
2022/05/10 10:30:38;;;;;;;10.98;7.63;;;22.80;81.80;;;;;;5024988;28;20128;-79
2022/05/10 10:33:05;;;;;;;12.00;6.35;;;22.80;81.30;;;;;;5031433;28;20061;-79
2022/05/10 10:35:31;;;;;;;7.88;7.10;;;22.70;83.50;;;;;;5023076;28;20045;-79
2022/05/10 10:37:58;;;;;;;20.40;8.75;;;22.70;82.30;;;;;;5023373;28;20119;-79
2022/05/10 10:40:24;;;;;;;8.52;6.95;;;22.70;79.60;;;;;;5031899;28;20045;-79
2022/05/10 10:42:51;;;;;;;7.50;6.78;;;22.70;80.10;;;;;;5031690;28;20076;-77
2022/05/10 10:45:18;;;;;;;15.82;8.45;;;22.70;79.80;;;;;;5029958;28;20124;-78
2022/05/10 10:47:44;;;;;;;10.57;6.97;;;22.70;80.90;;;;;;5017258;28;20075;-82
2022/05/10 10:50:11;;;;;;;11.85;6.40;;;22.70;79.80;;;;;;5028465;28;20045;-78
2022/05/10 10:52:37;;;;;;;8.27;6.72;;;22.60;79.50;;;;;;5031113;28;20049;-79
2022/05/10 10:55:04;;;;;;;8.82;6.47;;;22.80;80.20;;;;;;5023862;28;20589;-78
2022/05/10 10:57:31;;;;;;;11.68;7.55;;;22.90;80.10;;;;;;5030917;28;20049;-79
2022/05/10 10:59:57;;;;;;;8.48;5.93;;;22.90;80.10;;;;;;5024017;28;20064;-78
2022/05/10 11:02:24;;;;;;;10.80;6.47;;;23.00;80.40;;;;;;5022557;28;20058;-83
2022/05/10 11:04:50;;;;;;;11.98;7.20;;;23.10;79.90;;;;;;5021907;28;20077;-80
2022/05/10 11:07:18;;;;;;;10.70;6.53;;;23.30;78.60;;;;;;5023177;28;20056;-82
2022/05/10 11:09:44;;;;;;;17.08;6.68;;;23.40;77.90;;;;;;5019120;28;20361;-84
2022/05/10 11:12:12;;;;;;;12.48;6.93;;;23.40;76.80;;;;;;5021908;28;20050;-81
2022/05/10 11:14:39;;;;;;;7.97;6.70;;;23.50;77.00;;;;;;5021999;28;20064;-81
2022/05/10 11:17:05;;;;;;;11.55;6.70;;;23.40;77.20;;;;;;5023423;28;20063;-82
2022/05/10 11:19:32;;;;;;;14.48;5.93;;;23.40;76.70;;;;;;5020897;28;20045;-82
2022/05/10 11:21:58;;;;;;;13.63;6.60;;;23.40;75.50;;;;;;5026081;28;20128;-82
2022/05/10 11:24:25;;;;;;;10.90;6.80;;;23.40;74.00;;;;;;5018932;28;20045;-83
2022/05/10 11:26:51;;;;;;;9.88;6.35;;;23.30;72.50;;;;;;5018244;28;20057;-82
2022/05/10 11:29:18;;;;;;;23.90;7.93;;;23.20;73.50;;;;;;5022128;28;20060;-82
2022/05/10 11:31:44;;;;;;;20.50;7.28;;;23.20;72.20;;;;;;5021178;28;20053;-82
2022/05/10 11:34:11;;;;;;;8.88;6.40;;;23.20;71.80;;;;;;5023666;28;20053;-81
2022/05/10 11:36:37;;;;;;;11.77;7.80;;;23.10;71.10;;;;;;5025272;28;20045;-82
2022/05/10 11:39:04;;;;;;;9.88;7.18;;;23.10;72.10;;;;;;5029170;28;20479;-81
2022/05/10 11:41:30;;;;;;;16.90;7.60;;;23.00;73.30;;;;;;5025897;28;20045;-82
2022/05/10 11:43:57;;;;;;;11.27;7.18;;;23.00;73.10;;;;;;5020614;28;20045;-83
2022/05/10 11:46:24;;;;;;;13.75;8.65;;;22.90;74.00;;;;;;5018629;28;20088;-86
2022/05/10 11:48:50;;;;;;;11.95;6.47;;;22.90;73.80;;;;;;5023450;28;20053;-83
2022/05/10 11:54:01;;;;;;;11.38;7.38;;;22.80;76.80;;;;;;5020983;28;20050;-83
2022/05/10 11:56:28;;;;;;;9.77;7.88;;;22.80;79.10;;;;;;5027631;28;20045;-83
2022/05/10 11:58:54;;;;;;;14.23;8.20;;;22.80;79.70;;;;;;5017537;28;20619;-84
2022/05/10 12:01:21;;;;;;;11.00;8.88;;;22.80;78.40;;;;;;5023319;28;20049;-82
2022/05/10 12:03:49;;;;;;;20.92;9.25;;;22.90;77.90;;;;;;5021305;28;20136;-82
2022/05/10 12:06:15;;;;;;;15.05;8.10;;;22.90;79.10;;;;;;5023939;28;20415;-83
2022/05/10 12:08:44;;;;;;;14.55;8.85;;;22.90;79.40;;;;;;5028879;28;20499;-82
2022/05/10 12:11:10;;;;;;;9.90;8.73;;;22.90;78.70;;;;;;5010723;28;20045;-82
2022/05/10 12:21:49;;;;;;;11.25;7.88;;;23.20;77.30;;;;;;5022099;28;20045;-83
2022/05/10 12:24:16;;;;;;;12.73;11.10;;;23.30;77.80;;;;;;5018364;28;20083;-82
2022/05/10 12:26:47;;;;;;;11.30;9.25;;;23.30;77.50;;;;;;5011654;28;20379;-83
2022/05/10 12:29:13;;;;;;;11.02;7.82;;;23.40;79.10;;;;;;5022010;28;20133;-84
2022/05/10 12:31:40;;;;;;;15.23;8.65;;;23.50;79.10;;;;;;5016561;28;20400;-82
2022/05/10 12:34:06;;;;;;;9.65;7.28;;;23.50;78.20;;;;;;5016273;28;20484;-82
2022/05/10 12:36:33;;;;;;;13.10;8.73;;;23.60;77.10;;;;;;5021573;28;20089;-82
2022/05/10 12:39:00;;;;;;;15.25;8.50;;;23.60;74.90;;;;;;5013892;28;20512;-82
2022/05/10 12:41:27;;;;;;;18.92;8.55;;;23.70;73.50;;;;;;5023727;28;20049;-83
2022/05/10 12:43:53;;;;;;;14.93;7.45;;;23.70;73.30;;;;;;5010294;28;20053;-83
2022/05/10 12:46:20;;;;;;;15.93;7.32;;;23.70;73.10;;;;;;5024690;28;20053;-83
2022/05/10 12:48:46;;;;;;;21.17;7.97;;;23.70;73.20;;;;;;5025263;28;20223;-82
2022/05/10 12:51:13;;;;;;;20.38;8.95;;;23.70;72.80;;;;;;5013322;28;20046;-84
2022/05/10 12:53:39;;;;;;;15.77;7.43;;;23.80;72.60;;;;;;5022182;28;20089;-82